SBBR/BSB METAR and TAF weather

Enter ICAO airport designator
Station Type Date Time Source
SBBR METAR 2018/12/12 11:00 UTC NOAA

SBBR 121100Z 06008KT CAVOK 22/18 Q1023


Station Type Date Time Source
SBBR Decoded METAR 2018/12/12 11:00 UTC NOAA

Brasilia Aeroporto , Brazil (SBBR) 15-52S 047-56W 1061M
Dec 12, 2018 - 06:00 AM EST / 2018.12.12 1100 UTC
Wind: from the ENE (060 degrees) at 9 MPH (8 KT):0
Visibility: greater than 7 mile(s):0
Temperature: 71 F (22 C)
Dew Point: 64 F (18 C)
Relative Humidity: 78%
Pressure (altimeter): 30.21 in. Hg (1023 hPa)
ob: SBBR 121100Z 06008KT CAVOK 22/18 Q1023
cycle: 11

Station Type Date Time Source
SBBR TAF 2018/12/12 12:55 UTC NOAA

TAF SBBR 121000Z 1212/1312 08009KT 9999 BKN015 TX26/1218Z TN19/1308Z
BECMG 1215/1217 08010KT BKN030 FEW035TCU PROB30 1218/1223 8000 TSRA BKN025 FEW035CB
BECMG 1220/1222 SCT017 FEW035TCU
BECMG 1222/1224 35005KT BKN010 FEW030TCU
BECMG 1310/1312 08009KT BKN015
RMK PEW


Example: see airport list